This is the latest recevied weather packets stored in our database for station/object OK1HOL-13. If no packets are shown the sender has not sent any weather packets the latest 10 day(s).
| Time | Temp. | Humidity | Pressure | Rain* | Wind** | Luminosity | Snow |
|---|---|---|---|---|---|---|---|
| 1778080564 | 19.44° C | 51% | 1004.8 hPa | - | - | 10 W/m² | - |
| 1778079964 | 20° C | 51% | 1004.7 hPa | - | - | 13 W/m² | - |
| 1778079364 | 21.11° C | 48% | 1004.8 hPa | - | - | 14 W/m² | - |
| 1778078764 | 21.67° C | 44% | 1004.8 hPa | - | - | 16 W/m² | - |
| 1778078164 | 22.78° C | 42% | 1004.8 hPa | - | - | 25 W/m² | - |
| 1778077564 | 22.78° C | 41% | 1005 hPa | - | - | 59 W/m² | - |
| 1778076964 | 22.78° C | 40% | 1004.9 hPa | - | - | 49 W/m² | - |
| 1778076364 | 22.78° C | 39% | 1004.9 hPa | - | - | 98 W/m² | - |
| 1778075764 | 23.33° C | 38% | 1005 hPa | - | - | 74 W/m² | - |
| 1778075164 | 23.33° C | 38% | 1005 hPa | - | - | 174 W/m² | - |
| 1778074564 | 22.78° C | 39% | 1005.1 hPa | - | - | 87 W/m² | - |
| 1778073368 | 23.89° C | 37% | 1005.2 hPa | - | - | 0 W/m² | - |
| 1778072763 | 25° C | 34% | 1005.4 hPa | - | - | 431 W/m² | - |
| 1778072163 | 23.89° C | 36% | 1005.6 hPa | - | - | 431 W/m² | - |
| 1778071563 | 25.56° C | 35% | 1005.7 hPa | - | - | 431 W/m² | - |
| 1778070963 | 23.89° C | 37% | 1005.8 hPa | - | - | 431 W/m² | - |
| 1778070363 | 25.56° C | 35% | 1006.1 hPa | - | - | 176 W/m² | - |
| 1778069763 | 24.44° C | 37% | 1006.2 hPa | - | - | 431 W/m² | - |
| 1778069163 | 23.33° C | 38% | 1006.3 hPa | - | - | 168 W/m² | - |
| 1778068563 | 23.33° C | 37% | 1006.3 hPa | - | - | 431 W/m² | - |
| 1778067963 | 23.89° C | 37% | 1006.2 hPa | - | - | 431 W/m² | - |
| 1778067363 | 22.78° C | 39% | 1006.4 hPa | - | - | 431 W/m² | - |
| 1778066763 | 21.67° C | 40% | 1006.6 hPa | - | - | 431 W/m² | - |
| 1778066163 | 22.22° C | 39% | 1006.7 hPa | - | - | 431 W/m² | - |
| 1778065563 | 21.67° C | 42% | 1006.8 hPa | - | - | 431 W/m² | - |
* Rain since midnight (hover to see other rain measurements)
** Current wind speed in m/s (hover to see current wind gust speed)